createdAt,value
2024-04-12T00:00:16.856Z,92.99
2024-04-12T00:01:16.888Z,92.79
2024-04-12T00:02:16.910Z,92.79
2024-04-12T00:03:16.857Z,92.89
2024-04-12T00:04:16.695Z,92.79
2024-04-12T00:05:16.811Z,92.79
2024-04-12T00:06:16.828Z,92.79
2024-04-12T00:07:18.722Z,92.79
2024-04-12T00:08:16.968Z,92.89
2024-04-12T00:09:16.625Z,92.68
2024-04-12T00:10:16.898Z,92.68
2024-04-12T00:11:16.755Z,92.68
2024-04-12T00:12:16.728Z,92.89
2024-04-12T00:13:16.950Z,92.79
2024-04-12T00:14:16.675Z,92.68
2024-04-12T00:15:17.071Z,92.79
2024-04-12T00:16:16.939Z,92.79
2024-04-12T00:17:16.750Z,92.89
2024-04-12T00:18:16.878Z,92.79
2024-04-12T00:19:16.778Z,92.58
2024-04-12T00:20:16.979Z,92.89
2024-04-12T00:21:16.590Z,93.09
2024-04-12T00:22:16.559Z,93.09
2024-04-12T00:23:16.577Z,92.99
2024-04-12T00:24:16.604Z,92.99
2024-04-12T00:25:16.824Z,93.09
2024-04-12T00:26:16.600Z,93.09
2024-04-12T00:27:16.772Z,93.40
2024-04-12T00:28:16.456Z,93.40
2024-04-12T00:29:16.562Z,93.40
2024-04-12T00:30:16.510Z,93.70
2024-04-12T00:31:16.397Z,93.40
2024-04-12T00:32:16.483Z,93.40
2024-04-12T00:33:16.898Z,93.49
2024-04-12T00:34:16.422Z,93.49
2024-04-12T00:35:16.376Z,93.40
2024-04-12T00:36:16.415Z,93.49
2024-04-12T00:37:16.334Z,93.60
2024-04-12T00:38:16.694Z,93.49
2024-04-12T00:39:16.372Z,93.49
2024-04-12T00:40:16.359Z,93.60
2024-04-12T00:41:16.646Z,93.70
2024-04-12T00:42:16.540Z,93.70
2024-04-12T00:43:16.556Z,93.60
2024-04-12T00:44:16.265Z,93.70
2024-04-12T00:45:16.347Z,93.70
2024-04-12T00:46:16.451Z,93.80
2024-04-12T00:47:16.295Z,93.80
2024-04-12T00:48:16.386Z,93.70
2024-04-12T00:49:16.448Z,93.70
2024-04-12T00:50:16.194Z,94.00
2024-04-12T00:51:16.519Z,93.90
2024-04-12T00:52:16.412Z,93.80
2024-04-12T00:53:16.408Z,93.80
2024-04-12T00:54:16.130Z,94.00
2024-04-12T00:55:16.226Z,93.80
2024-04-12T00:56:16.924Z,93.90
2024-04-12T00:57:16.134Z,94.10
2024-04-12T00:58:16.191Z,94.21
2024-04-12T00:59:16.209Z,94.21
2024-04-12T01:00:16.233Z,94.21
2024-04-12T01:01:16.222Z,94.31
2024-04-12T01:02:16.164Z,94.25
2024-04-12T01:03:16.279Z,94.35
2024-04-12T01:04:16.303Z,94.66
2024-04-12T01:05:16.075Z,94.35
2024-04-12T01:06:16.158Z,94.25
2024-04-12T01:07:16.032Z,94.25
2024-04-12T01:08:16.099Z,94.35
2024-04-12T01:09:16.033Z,94.15
2024-04-12T01:10:16.279Z,94.66
2024-04-12T01:11:16.148Z,94.56
2024-04-12T01:12:16.014Z,94.56
2024-04-12T01:13:15.985Z,94.35
2024-04-12T01:14:16.184Z,94.66
2024-04-12T01:15:15.954Z,94.96
2024-04-12T01:16:15.940Z,94.86
2024-04-12T01:17:16.041Z,94.96
2024-04-12T01:18:16.863Z,94.66
2024-04-12T01:19:15.928Z,94.76
2024-04-12T01:20:15.959Z,94.76
2024-04-12T01:21:16.148Z,94.76
2024-04-12T01:22:16.024Z,94.76
2024-04-12T01:23:16.048Z,94.76
2024-04-12T01:24:16.038Z,94.66
2024-04-12T01:25:15.902Z,94.56
2024-04-12T01:26:15.851Z,94.56
2024-04-12T01:27:15.823Z,94.45
2024-04-12T01:28:15.846Z,94.56
2024-04-12T01:29:15.850Z,94.45
2024-04-12T01:30:15.820Z,94.35
2024-04-12T01:31:15.849Z,94.35
2024-04-12T01:32:15.854Z,94.56
2024-04-12T01:33:15.995Z,94.45
2024-04-12T01:34:15.752Z,94.25
2024-04-12T01:35:15.798Z,94.35
2024-04-12T01:36:15.807Z,94.56
2024-04-12T01:37:16.120Z,94.45
2024-04-12T01:38:15.865Z,94.45
2024-04-12T01:39:15.845Z,94.76
2024-04-12T01:40:15.833Z,94.86
2024-04-12T01:41:15.785Z,94.96
2024-04-12T01:42:15.913Z,94.76
2024-04-12T01:43:15.695Z,94.76
2024-04-12T01:44:15.617Z,94.76
2024-04-12T01:45:15.677Z,94.86
2024-04-12T01:46:15.732Z,94.76
2024-04-12T01:47:16.069Z,94.76
2024-04-12T01:48:16.082Z,94.76
2024-04-12T01:49:15.698Z,95.06
2024-04-12T01:50:15.728Z,94.96
2024-04-12T01:51:15.939Z,94.86
2024-04-12T01:52:15.608Z,94.86
2024-04-12T01:53:15.628Z,94.76
2024-04-12T01:54:16.282Z,94.66
2024-04-12T01:55:15.634Z,94.86
2024-04-12T01:56:15.902Z,94.86
2024-04-12T01:57:15.568Z,94.76
2024-04-12T01:58:15.641Z,94.66
2024-04-12T01:59:15.514Z,94.76
2024-04-12T02:00:15.779Z,94.86
2024-04-12T02:01:15.690Z,94.76
2024-04-12T02:02:15.471Z,94.76
2024-04-12T02:03:15.676Z,94.76
2024-04-12T02:04:15.614Z,94.56
2024-04-12T02:05:15.638Z,94.66
2024-04-12T02:06:15.636Z,94.56
2024-04-12T02:07:16.128Z,94.76
2024-04-12T02:08:15.797Z,94.86
2024-04-12T02:09:15.425Z,94.66
2024-04-12T02:10:15.346Z,94.76
2024-04-12T02:11:16.427Z,94.76
2024-04-12T02:12:15.423Z,94.76
2024-04-12T02:13:15.667Z,94.66
2024-04-12T02:14:15.521Z,94.66
2024-04-12T02:15:15.411Z,94.76
2024-04-12T02:16:15.486Z,94.86
2024-04-12T02:17:15.849Z,94.66
2024-04-12T02:18:15.888Z,94.76
2024-04-12T02:19:15.613Z,94.76
2024-04-12T02:20:15.416Z,94.96
2024-04-12T02:21:15.512Z,94.86
2024-04-12T02:22:15.248Z,94.86
2024-04-12T02:23:15.354Z,95.17
2024-04-12T02:24:15.430Z,95.06
2024-04-12T02:25:15.299Z,95.17
2024-04-12T02:26:15.251Z,95.26
2024-04-12T02:27:15.276Z,95.26
2024-04-12T02:28:15.365Z,95.26
2024-04-12T02:29:15.422Z,95.37
2024-04-12T02:30:15.322Z,95.57
2024-04-12T02:31:15.435Z,95.47
2024-04-12T02:32:15.161Z,95.67
2024-04-12T02:33:15.291Z,95.47
2024-04-12T02:34:15.360Z,95.67
2024-04-12T02:35:15.406Z,95.78
2024-04-12T02:36:15.118Z,95.78
2024-04-12T02:37:15.122Z,95.67
2024-04-12T02:38:15.561Z,95.98
2024-04-12T02:39:15.134Z,95.87
2024-04-12T02:40:15.069Z,96.08
2024-04-12T02:41:16.144Z,96.08
2024-04-12T02:42:15.158Z,96.08
2024-04-12T02:43:15.049Z,96.48
2024-04-12T02:44:15.045Z,96.48
2024-04-12T02:45:15.312Z,96.48
2024-04-12T02:46:15.229Z,96.48
2024-04-12T02:47:15.070Z,96.69
2024-04-12T02:48:15.150Z,96.69
2024-04-12T02:49:14.978Z,96.89
2024-04-12T02:50:15.046Z,96.99
2024-04-12T02:51:15.045Z,96.89
2024-04-12T02:52:14.940Z,96.89
2024-04-12T02:53:15.205Z,96.99
2024-04-12T02:54:15.285Z,96.89
2024-04-12T02:55:15.006Z,96.89
2024-04-12T02:56:15.045Z,96.89
2024-04-12T02:57:14.960Z,97.04
2024-04-12T02:58:15.412Z,96.99
2024-04-12T02:59:15.527Z,97.34
2024-04-12T03:00:14.955Z,97.34
2024-04-12T03:01:15.040Z,97.34
2024-04-12T03:02:14.884Z,97.34
2024-04-12T03:03:14.939Z,97.44
2024-04-12T03:04:15.076Z,97.55
2024-04-12T03:05:15.036Z,97.55
2024-04-12T03:06:14.823Z,97.44
2024-04-12T03:07:14.851Z,97.44
2024-04-12T03:08:14.926Z,97.44
2024-04-12T03:09:15.141Z,97.44
2024-04-12T03:10:14.814Z,97.44
2024-04-12T03:11:14.976Z,97.44
2024-04-12T03:12:14.757Z,97.44
2024-04-12T03:13:14.733Z,97.44
2024-04-12T03:14:14.686Z,97.55
2024-04-12T03:15:14.810Z,97.85
2024-04-12T03:16:15.006Z,97.55
2024-04-12T03:17:14.802Z,97.44
2024-04-12T03:18:14.736Z,97.55
2024-04-12T03:19:14.677Z,97.55
2024-04-12T03:20:14.670Z,97.65
2024-04-12T03:21:14.667Z,97.55
2024-04-12T03:22:14.681Z,97.55
2024-04-12T03:23:14.666Z,97.55
2024-04-12T03:24:14.770Z,97.55
2024-04-12T03:25:14.893Z,97.85
2024-04-12T03:26:14.770Z,97.85
2024-04-12T03:27:14.743Z,97.75
2024-04-12T03:28:14.671Z,97.75
2024-04-12T03:29:14.802Z,97.65
2024-04-12T03:30:15.130Z,97.55
2024-04-12T03:31:14.812Z,97.55
2024-04-12T03:32:14.695Z,97.44
2024-04-12T03:33:14.661Z,97.55
2024-04-12T03:34:14.641Z,97.44
2024-04-12T03:35:14.647Z,97.65
2024-04-12T03:36:14.493Z,97.65
2024-04-12T03:37:14.583Z,97.75
2024-04-12T03:38:14.630Z,97.65
2024-04-12T03:39:14.488Z,97.65
2024-04-12T03:40:14.595Z,97.75
2024-04-12T03:41:14.503Z,97.55
2024-04-12T03:42:14.483Z,97.75
2024-04-12T03:43:14.417Z,97.85
2024-04-12T03:44:14.493Z,97.75
2024-04-12T03:45:14.797Z,97.85
2024-04-12T03:46:14.403Z,97.75
2024-04-12T03:47:14.705Z,97.85
2024-04-12T03:48:14.441Z,98.05
2024-04-12T03:49:14.527Z,98.05
2024-04-12T03:50:15.080Z,98.05
2024-04-12T03:51:14.372Z,97.96
2024-04-12T03:52:16.025Z,98.05
2024-04-12T03:53:14.349Z,97.85
2024-04-12T03:54:14.320Z,97.85
2024-04-12T03:55:14.267Z,97.75
2024-04-12T03:56:14.318Z,97.75
2024-04-12T03:57:14.468Z,97.75
2024-04-12T03:58:14.362Z,97.65
2024-04-12T03:59:14.274Z,97.65
2024-04-12T04:00:14.355Z,97.85
2024-04-12T04:01:14.368Z,97.96
2024-04-12T04:02:14.455Z,97.75
2024-04-12T04:03:14.560Z,97.75
2024-04-12T04:04:14.224Z,97.75
2024-04-12T04:05:14.414Z,97.85
2024-04-12T04:06:14.502Z,97.75
2024-04-12T04:07:14.265Z,97.96
2024-04-12T04:08:14.269Z,97.96
2024-04-12T04:09:14.282Z,97.96
2024-04-12T04:10:14.277Z,98.16
2024-04-12T04:11:14.255Z,98.26
2024-04-12T04:12:14.313Z,98.26
2024-04-12T04:13:16.967Z,98.26
2024-04-12T04:14:14.238Z,98.46
2024-04-12T04:15:14.413Z,98.46
2024-04-12T04:16:14.071Z,98.66
2024-04-12T04:17:14.512Z,98.81
2024-04-12T04:18:14.300Z,98.81
2024-04-12T04:19:14.276Z,99.22
2024-04-12T04:20:14.215Z,99.42
2024-04-12T04:21:14.232Z,99.42
2024-04-12T04:22:14.071Z,99.63
2024-04-12T04:23:14.246Z,99.99
2024-04-12T04:24:14.995Z,99.99
2024-04-12T04:25:14.086Z,99.99
2024-04-12T04:26:14.156Z,99.99
2024-04-12T04:27:14.226Z,99.83
2024-04-12T04:28:14.192Z,99.93
2024-04-12T04:29:14.517Z,99.99
2024-04-12T04:30:14.790Z,99.99
2024-04-12T04:31:15.831Z,99.99
2024-04-12T04:32:14.028Z,99.99
2024-04-12T04:33:14.463Z,99.99
2024-04-12T04:34:13.976Z,99.99
2024-04-12T04:35:14.166Z,99.99
2024-04-12T04:36:13.931Z,99.99
2024-04-12T04:37:22.554Z,99.99
2024-04-12T04:38:14.451Z,99.99
2024-04-12T04:39:14.148Z,99.99
2024-04-12T04:40:14.110Z,99.99
2024-04-12T04:41:14.395Z,99.99
2024-04-12T04:42:14.184Z,99.99
2024-04-12T04:43:13.806Z,99.99
2024-04-12T04:44:13.790Z,99.99
2024-04-12T04:45:14.183Z,99.99
2024-04-12T04:46:13.920Z,99.99
2024-04-12T04:47:14.058Z,99.99
2024-04-12T04:48:14.149Z,99.99
2024-04-12T04:49:14.334Z,99.99
2024-04-12T04:50:13.946Z,99.99
2024-04-12T04:51:14.241Z,99.99
2024-04-12T04:52:13.717Z,99.99
2024-04-12T04:53:13.850Z,99.99
2024-04-12T04:54:13.974Z,99.99
2024-04-12T04:55:14.079Z,99.99
2024-04-12T04:56:13.736Z,99.99
2024-04-12T04:57:13.773Z,99.99
2024-04-12T04:58:13.734Z,99.99
2024-04-12T04:59:13.742Z,99.99
2024-04-12T05:00:13.776Z,99.99
2024-04-12T05:01:13.770Z,99.99
2024-04-12T05:02:13.793Z,99.99
2024-04-12T05:03:13.905Z,99.99
2024-04-12T05:04:13.764Z,99.99
2024-04-12T05:05:13.826Z,99.99
2024-04-12T05:06:13.831Z,99.99
2024-04-12T05:07:13.766Z,99.99
2024-04-12T05:08:13.766Z,99.99
2024-04-12T05:09:13.786Z,99.99
2024-04-12T05:10:13.597Z,99.99
2024-04-12T05:11:13.552Z,99.99
2024-04-12T05:12:13.636Z,99.99
2024-04-12T05:13:13.530Z,99.99
2024-04-12T05:14:13.973Z,99.99
2024-04-12T05:15:13.642Z,99.99
2024-04-12T05:16:13.597Z,99.99
2024-04-12T05:17:13.988Z,99.99
2024-04-12T05:18:15.331Z,99.99
2024-04-12T05:19:13.946Z,99.99
2024-04-12T05:20:13.615Z,99.99
2024-04-12T05:21:13.754Z,99.99
2024-04-12T05:22:13.420Z,99.99
2024-04-12T05:23:13.752Z,99.99
2024-04-12T05:24:13.479Z,99.99
2024-04-12T05:25:13.374Z,99.99
2024-04-12T05:26:13.356Z,99.99
2024-04-12T05:27:13.591Z,99.99
2024-04-12T05:28:13.363Z,99.99
2024-04-12T05:29:13.443Z,99.99
2024-04-12T05:30:13.675Z,99.99
2024-04-12T05:31:13.396Z,99.99
2024-04-12T05:32:13.338Z,99.99
2024-04-12T05:33:13.907Z,99.99
2024-04-12T05:34:13.261Z,99.99
2024-04-12T05:35:13.333Z,99.99
2024-04-12T05:36:13.575Z,99.99
2024-04-12T05:37:13.549Z,99.99
2024-04-12T05:38:13.478Z,99.99
2024-04-12T05:39:13.531Z,99.99
2024-04-12T05:40:13.241Z,99.99
2024-04-12T05:41:13.524Z,99.99
2024-04-12T05:42:13.585Z,99.99
2024-04-12T05:43:13.320Z,99.99
2024-04-12T05:44:13.663Z,99.99
2024-04-12T05:45:13.597Z,99.99
2024-04-12T05:46:13.463Z,99.99
2024-04-12T05:47:13.409Z,99.99
2024-04-12T05:48:13.309Z,99.99
2024-04-12T05:49:13.127Z,99.99
2024-04-12T05:50:13.354Z,99.99
2024-04-12T05:51:13.440Z,99.99
2024-04-12T05:52:13.333Z,99.99
2024-04-12T05:53:13.248Z,99.99
2024-04-12T05:54:13.436Z,99.99
2024-04-12T05:55:13.326Z,99.99
2024-04-12T05:56:13.093Z,99.99
2024-04-12T05:57:13.598Z,99.99
2024-04-12T05:58:13.152Z,99.99
2024-04-12T05:59:13.509Z,99.99
2024-04-12T06:00:13.216Z,99.99
2024-04-12T06:01:13.027Z,99.99
2024-04-12T06:02:13.031Z,99.99
2024-04-12T06:03:13.130Z,99.99
2024-04-12T06:04:13.104Z,99.99
2024-04-12T06:05:13.299Z,99.99
2024-04-12T06:06:13.044Z,99.99
2024-04-12T06:07:13.301Z,99.99
2024-04-12T06:08:13.842Z,99.99
2024-04-12T06:09:16.489Z,99.99
2024-04-12T06:10:13.104Z,99.99
2024-04-12T06:11:13.024Z,99.99
2024-04-12T06:12:13.469Z,99.99
2024-04-12T06:13:12.937Z,99.99
2024-04-12T06:14:13.391Z,99.99
2024-04-12T06:15:13.106Z,99.99
2024-04-12T06:16:13.147Z,99.99
2024-04-12T06:17:12.910Z,99.99
2024-04-12T06:18:12.895Z,99.99
2024-04-12T06:19:12.867Z,99.99
2024-04-12T06:20:12.817Z,99.99
2024-04-12T06:21:12.866Z,99.99
2024-04-12T06:22:12.867Z,99.99
2024-04-12T06:23:12.835Z,99.99
2024-04-12T06:24:12.802Z,99.99
2024-04-12T06:25:13.006Z,99.99
2024-04-12T06:26:12.789Z,99.99
2024-04-12T06:27:12.834Z,99.99
2024-04-12T06:28:12.725Z,99.99
2024-04-12T06:29:13.990Z,99.99
2024-04-12T06:30:12.741Z,99.99
2024-04-12T06:31:12.727Z,99.99
2024-04-12T06:32:13.066Z,99.99
2024-04-12T06:33:12.904Z,99.99
2024-04-12T06:34:12.685Z,99.99
2024-04-12T06:35:12.905Z,99.99
2024-04-12T06:36:12.766Z,99.99
2024-04-12T06:37:12.945Z,99.99
2024-04-12T06:38:12.627Z,99.99
2024-04-12T06:39:12.866Z,99.99
2024-04-12T06:40:12.759Z,99.99
2024-04-12T06:41:12.716Z,99.99
2024-04-12T06:42:12.918Z,99.99
2024-04-12T06:43:15.064Z,99.99
2024-04-12T06:44:12.752Z,99.99
2024-04-12T06:45:12.572Z,99.99
2024-04-12T06:46:12.704Z,99.99
2024-04-12T06:47:12.747Z,99.99
2024-04-12T06:48:12.732Z,99.99
2024-04-12T06:49:12.552Z,99.99
2024-04-12T06:50:12.526Z,99.99
2024-04-12T06:51:13.238Z,99.99
2024-04-12T06:52:12.560Z,99.99
2024-04-12T06:53:12.794Z,99.99
2024-04-12T06:54:12.869Z,99.74
2024-04-12T06:55:12.585Z,99.54
2024-04-12T06:56:12.464Z,99.44
2024-04-12T06:57:12.532Z,99.54
2024-04-12T06:58:12.413Z,99.44
2024-04-12T06:59:12.765Z,99.33
2024-04-12T07:00:12.441Z,99.33
2024-04-12T07:01:12.616Z,99.54
2024-04-12T07:02:12.388Z,99.04
2024-04-12T07:03:12.519Z,99.04
2024-04-12T07:04:12.533Z,99.04
2024-04-12T07:05:12.725Z,99.04
2024-04-12T07:06:12.482Z,99.24
2024-04-12T07:07:12.560Z,99.04
2024-04-12T07:08:12.683Z,99.13
2024-04-12T07:09:12.372Z,99.13
2024-04-12T07:10:12.372Z,99.13
2024-04-12T07:11:12.333Z,99.33
2024-04-12T07:12:12.491Z,99.24
2024-04-12T07:13:12.415Z,99.24
2024-04-12T07:14:12.270Z,99.33
2024-04-12T07:15:12.757Z,99.44
2024-04-12T07:16:12.328Z,99.54
2024-04-12T07:17:12.412Z,99.13
2024-04-12T07:18:12.274Z,98.63
2024-04-12T07:19:12.208Z,98.88
2024-04-12T07:20:12.634Z,98.63
2024-04-12T07:21:12.352Z,98.79
2024-04-12T07:22:12.355Z,98.58
2024-04-12T07:23:12.304Z,98.73
2024-04-12T07:24:12.360Z,98.68
2024-04-12T07:25:12.414Z,98.48
2024-04-12T07:26:13.125Z,98.48
2024-04-12T07:27:12.577Z,98.58
2024-04-12T07:28:12.140Z,98.68
2024-04-12T07:29:12.972Z,98.58
2024-04-12T07:30:12.413Z,98.79
2024-04-12T07:31:12.177Z,98.94
2024-04-12T07:32:14.765Z,99.24
2024-04-12T07:33:12.293Z,98.94
2024-04-12T07:34:12.188Z,98.28
2024-04-12T07:35:12.321Z,97.58
2024-04-12T07:36:12.365Z,98.08
2024-04-12T07:37:12.130Z,97.33
2024-04-12T07:38:12.111Z,97.13
2024-04-12T07:39:12.062Z,96.62
2024-04-12T07:40:12.032Z,95.97
2024-04-12T07:41:12.283Z,95.56
2024-04-12T07:42:12.052Z,94.85
2024-04-12T07:43:12.322Z,95.15
2024-04-12T07:44:11.960Z,94.75
2024-04-12T07:45:12.234Z,94.35
2024-04-12T07:46:11.919Z,94.75
2024-04-12T07:47:11.990Z,94.65
2024-04-12T07:48:12.049Z,94.85
2024-04-12T07:49:11.911Z,95.15
2024-04-12T07:50:11.912Z,94.55
2024-04-12T07:51:12.172Z,95.15
2024-04-12T07:52:11.860Z,95.56
2024-04-12T07:53:12.223Z,95.56
2024-04-12T07:54:11.974Z,94.35
2024-04-12T07:55:11.913Z,94.75
2024-04-12T07:56:11.889Z,94.55
2024-04-12T07:57:11.854Z,93.84
2024-04-12T07:58:12.070Z,94.65
2024-04-12T07:59:11.957Z,94.24
2024-04-12T08:00:12.047Z,94.40
2024-04-12T08:01:11.857Z,94.55
2024-04-12T08:02:14.191Z,94.35
2024-04-12T08:03:11.824Z,93.54
2024-04-12T08:04:11.816Z,93.63
2024-04-12T08:05:11.802Z,93.43
2024-04-12T08:06:12.895Z,93.13
2024-04-12T08:07:11.754Z,93.03
2024-04-12T08:08:11.742Z,93.54
2024-04-12T08:09:11.932Z,93.63
2024-04-12T08:10:11.676Z,94.20
2024-04-12T08:11:11.948Z,94.40
2024-04-12T08:12:11.973Z,93.79
2024-04-12T08:13:11.687Z,92.88
2024-04-12T08:14:11.660Z,92.58
2024-04-12T08:15:11.757Z,93.04
2024-04-12T08:16:11.632Z,92.54
2024-04-12T08:17:11.655Z,92.74
2024-04-12T08:18:14.789Z,92.94
2024-04-12T08:19:11.752Z,93.04
2024-04-12T08:20:11.617Z,91.93
2024-04-12T08:21:11.669Z,91.83
2024-04-12T08:22:11.591Z,92.13
2024-04-12T08:23:11.839Z,92.44
2024-04-12T08:24:15.377Z,91.42
2024-04-12T08:25:11.708Z,91.93
2024-04-12T08:26:11.604Z,91.99
2024-04-12T08:27:12.014Z,92.09
2024-04-12T08:28:11.707Z,92.40
2024-04-12T08:29:11.741Z,91.64
2024-04-12T08:30:14.130Z,91.34
2024-04-12T08:31:12.025Z,90.23
2024-04-12T08:32:11.828Z,89.92
2024-04-12T08:33:11.648Z,90.83
2024-04-12T08:34:11.800Z,89.92
2024-04-12T08:35:11.642Z,89.52
2024-04-12T08:36:11.890Z,89.92
2024-04-12T08:37:11.802Z,90.73
2024-04-12T08:38:11.532Z,90.33
2024-04-12T08:39:11.654Z,90.49
2024-04-12T08:40:11.498Z,89.58
2024-04-12T08:41:11.476Z,89.68
2024-04-12T08:42:11.757Z,89.88
2024-04-12T08:43:12.081Z,90.08
2024-04-12T08:44:11.703Z,88.77
2024-04-12T08:45:11.603Z,89.98
2024-04-12T08:46:11.333Z,90.79
2024-04-12T08:47:11.452Z,90.45
2024-04-12T08:48:11.671Z,89.94
2024-04-12T08:49:12.332Z,89.64
2024-04-12T08:50:11.396Z,89.13
2024-04-12T08:51:11.373Z,87.38
2024-04-12T08:52:11.462Z,86.97
2024-04-12T08:53:11.354Z,88.18
2024-04-12T08:54:11.617Z,88.08
2024-04-12T08:55:15.739Z,86.73
2024-04-12T08:56:11.261Z,86.83
2024-04-12T08:57:11.491Z,88.34
2024-04-12T08:58:11.274Z,86.22
2024-04-12T08:59:11.396Z,87.13
2024-04-12T09:00:11.348Z,88.04
2024-04-12T09:01:11.315Z,88.00
2024-04-12T09:02:11.284Z,86.38
2024-04-12T09:03:11.446Z,85.62
2024-04-12T09:04:11.840Z,86.93
2024-04-12T09:05:14.571Z,86.93
2024-04-12T09:06:11.414Z,87.13
2024-04-12T09:07:11.164Z,86.69
2024-04-12T09:08:11.160Z,86.13
2024-04-12T09:09:11.457Z,86.22
2024-04-12T09:10:11.124Z,86.93
2024-04-12T09:11:11.318Z,85.52
2024-04-12T09:12:11.101Z,86.13
2024-04-12T09:13:11.079Z,86.13
2024-04-12T09:14:11.148Z,86.83
2024-04-12T09:15:11.270Z,86.63
2024-04-12T09:16:11.095Z,86.33
2024-04-12T09:17:11.149Z,87.94
2024-04-12T09:18:11.562Z,87.54
2024-04-12T09:19:11.551Z,87.34
2024-04-12T09:20:11.212Z,86.79
2024-04-12T09:21:11.196Z,86.89
2024-04-12T09:22:11.205Z,85.58
2024-04-12T09:23:11.083Z,85.88
2024-04-12T09:24:12.059Z,85.98
2024-04-12T09:25:10.995Z,85.98
2024-04-12T09:26:11.001Z,86.89
2024-04-12T09:27:12.166Z,85.84
2024-04-12T09:28:10.947Z,85.34
2024-04-12T09:29:11.934Z,86.44
2024-04-12T09:30:11.247Z,85.44
2024-04-12T09:31:10.923Z,84.43
2024-04-12T09:32:10.887Z,84.03
2024-04-12T09:33:12.186Z,85.08
2024-04-12T09:34:11.328Z,85.98
2024-04-12T09:35:10.944Z,85.78
2024-04-12T09:36:11.116Z,86.79
2024-04-12T09:37:10.934Z,86.18
2024-04-12T09:38:11.027Z,85.28
2024-04-12T09:39:12.174Z,85.88
2024-04-12T09:40:11.067Z,86.38
2024-04-12T09:41:10.994Z,85.98
2024-04-12T09:42:11.038Z,86.18
2024-04-12T09:43:11.045Z,84.88
2024-04-12T09:44:10.788Z,85.48
2024-04-12T09:45:12.939Z,86.18
2024-04-12T09:46:10.759Z,86.99
2024-04-12T09:47:11.138Z,85.82
2024-04-12T09:48:12.240Z,86.13
2024-04-12T09:49:10.936Z,87.23
2024-04-12T09:50:10.770Z,86.93
2024-04-12T09:51:10.825Z,86.83
2024-04-12T09:52:10.755Z,87.74
2024-04-12T09:53:11.426Z,87.23
2024-04-12T09:54:11.102Z,87.34
2024-04-12T09:55:10.716Z,88.45
2024-04-12T09:56:10.662Z,87.29
2024-04-12T09:57:12.942Z,87.19
2024-04-12T09:58:10.690Z,86.69
2024-04-12T09:59:10.671Z,86.58
2024-04-12T10:00:10.695Z,86.69
2024-04-12T10:01:10.662Z,87.80
2024-04-12T10:02:10.603Z,87.60
2024-04-12T10:03:11.180Z,87.49
2024-04-12T10:04:10.706Z,85.98
2024-04-12T10:05:10.842Z,86.08
2024-04-12T10:06:10.655Z,86.58
2024-04-12T10:07:10.589Z,86.18
2024-04-12T10:08:10.585Z,85.78
2024-04-12T10:09:13.536Z,86.29
2024-04-12T10:10:10.562Z,86.02
2024-04-12T10:11:10.644Z,86.63
2024-04-12T10:12:10.555Z,86.83
2024-04-12T10:13:10.499Z,86.33
2024-04-12T10:14:10.487Z,87.29
2024-04-12T10:15:13.411Z,87.70
2024-04-12T10:16:10.446Z,86.29
2024-04-12T10:17:10.710Z,86.49
2024-04-12T10:18:10.796Z,85.68
2024-04-12T10:19:10.538Z,86.58
2024-04-12T10:20:10.883Z,87.19
2024-04-12T10:21:10.600Z,86.29
2024-04-12T10:22:10.540Z,86.85
2024-04-12T10:23:10.454Z,85.44
2024-04-12T10:24:10.581Z,85.74
2024-04-12T10:25:10.485Z,86.35
2024-04-12T10:26:10.415Z,85.84
2024-04-12T10:27:10.526Z,85.64
2024-04-12T10:28:10.392Z,85.34
2024-04-12T10:29:10.531Z,85.44
2024-04-12T10:30:10.643Z,85.03
2024-04-12T10:31:10.591Z,85.30
2024-04-12T10:32:10.398Z,84.95
2024-04-12T10:33:10.376Z,83.25
2024-04-12T10:34:10.439Z,84.41
2024-04-12T10:35:10.380Z,82.26
2024-04-12T10:36:10.351Z,81.96
2024-04-12T10:37:10.333Z,83.03
2024-04-12T10:38:22.653Z,81.82
2024-04-12T10:39:10.454Z,83.12
2024-04-12T10:40:10.427Z,81.32
2024-04-12T10:41:10.398Z,81.48
2024-04-12T10:42:10.317Z,81.38
2024-04-12T10:43:10.209Z,82.68
2024-04-12T10:44:10.221Z,80.27
2024-04-12T10:45:13.555Z,81.98
2024-04-12T10:46:10.192Z,80.88
2024-04-12T10:47:10.185Z,80.17
2024-04-12T10:48:10.217Z,81.07
2024-04-12T10:49:11.280Z,79.97
2024-04-12T10:50:10.288Z,81.27
2024-04-12T10:51:14.092Z,82.22
2024-04-12T10:52:10.100Z,81.01
2024-04-12T10:53:10.178Z,80.11
2024-04-12T10:54:10.373Z,81.21
2024-04-12T10:55:10.128Z,81.32
2024-04-12T10:56:10.061Z,80.85
2024-04-12T10:57:10.107Z,81.65
2024-04-12T10:58:10.075Z,80.31
2024-04-12T10:59:10.075Z,81.01
2024-04-12T11:00:10.261Z,80.71
2024-04-12T11:01:10.170Z,80.51
2024-04-12T11:02:09.971Z,80.61
2024-04-12T11:03:11.105Z,81.82
2024-04-12T11:04:10.136Z,80.01
2024-04-12T11:05:10.194Z,79.97
2024-04-12T11:06:10.192Z,80.68
2024-04-12T11:07:09.927Z,80.37
2024-04-12T11:08:19.684Z,79.47
2024-04-12T11:09:12.104Z,79.23
2024-04-12T11:10:10.150Z,79.13
2024-04-12T11:11:09.998Z,79.13
2024-04-12T11:12:09.956Z,80.24
2024-04-12T11:13:10.035Z,78.09
2024-04-12T11:14:10.385Z,77.72
2024-04-12T11:15:12.998Z,78.73
2024-04-12T11:16:09.914Z,78.89
2024-04-12T11:17:10.280Z,78.69
2024-04-12T11:18:10.205Z,78.49
2024-04-12T11:19:10.075Z,78.19
2024-04-12T11:20:10.176Z,79.49
2024-04-12T11:21:13.226Z,77.19
2024-04-12T11:22:09.913Z,79.19
2024-04-12T11:23:09.938Z,77.45
2024-04-12T11:24:10.343Z,79.05
2024-04-12T11:25:09.929Z,77.95
2024-04-12T11:26:09.795Z,77.99
2024-04-12T11:27:09.913Z,79.66
2024-04-12T11:28:09.872Z,77.35
2024-04-12T11:29:09.882Z,75.84
2024-04-12T11:30:10.019Z,77.41
2024-04-12T11:31:09.735Z,78.68
2024-04-12T11:32:09.751Z,78.28
2024-04-12T11:33:09.810Z,78.00
2024-04-12T11:34:12.199Z,75.06
2024-04-12T11:35:10.212Z,76.03
2024-04-12T11:36:10.060Z,75.19
2024-04-12T11:37:09.783Z,70.56
2024-04-12T11:38:09.661Z,73.42
2024-04-12T11:39:10.233Z,70.16
2024-04-12T11:40:09.681Z,72.32
2024-04-12T11:41:09.760Z,69.89
2024-04-12T11:42:10.022Z,68.26
2024-04-12T11:43:09.772Z,68.53
2024-04-12T11:44:09.570Z,67.50
2024-04-12T11:45:09.743Z,65.18
2024-04-12T11:46:09.548Z,66.94
2024-04-12T11:47:09.570Z,64.45
2024-04-12T11:48:09.853Z,65.55
2024-04-12T11:49:09.721Z,64.92
2024-04-12T11:50:09.553Z,63.30
2024-04-12T11:51:09.851Z,64.79
2024-04-12T11:52:09.718Z,63.79
2024-04-12T11:53:09.547Z,65.12
2024-04-12T11:54:09.595Z,61.55
2024-04-12T11:55:09.534Z,62.13
2024-04-12T11:56:09.776Z,63.59
2024-04-12T11:57:09.705Z,63.65
2024-04-12T11:58:09.602Z,65.20
2024-04-12T11:59:09.540Z,66.03
2024-04-12T12:00:09.446Z,66.80
2024-04-12T12:01:09.528Z,69.53
2024-04-12T12:02:09.638Z,70.42
2024-04-12T12:03:09.609Z,70.53
2024-04-12T12:04:09.418Z,68.33
2024-04-12T12:05:09.450Z,69.46
2024-04-12T12:06:09.748Z,69.59
2024-04-12T12:07:12.025Z,70.59
2024-04-12T12:08:09.570Z,70.62
2024-04-12T12:09:09.452Z,70.46
2024-04-12T12:10:09.651Z,72.06
2024-04-12T12:11:09.426Z,73.66
2024-04-12T12:12:09.482Z,72.50
2024-04-12T12:13:09.387Z,72.83
2024-04-12T12:14:09.421Z,72.66
2024-04-12T12:15:09.583Z,72.56
2024-04-12T12:16:09.396Z,73.77
2024-04-12T12:17:09.384Z,73.86
2024-04-12T12:18:09.489Z,74.17
2024-04-12T12:19:09.248Z,73.40
2024-04-12T12:20:09.280Z,74.30
2024-04-12T12:21:09.443Z,74.51
2024-04-12T12:22:09.422Z,74.90
2024-04-12T12:23:09.891Z,75.10
2024-04-12T12:24:09.539Z,76.28
2024-04-12T12:25:10.062Z,75.77
2024-04-12T12:26:09.205Z,73.67
2024-04-12T12:27:09.830Z,74.07
2024-04-12T12:28:09.469Z,73.63
2024-04-12T12:29:09.822Z,74.84
2024-04-12T12:30:09.234Z,75.23
2024-04-12T12:31:09.318Z,73.90
2024-04-12T12:32:09.291Z,72.60
2024-04-12T12:33:09.303Z,73.16
2024-04-12T12:34:09.360Z,71.33
2024-04-12T12:35:09.531Z,71.23
2024-04-12T12:36:09.154Z,71.12
2024-04-12T12:37:09.325Z,70.46
2024-04-12T12:38:09.268Z,70.09
2024-04-12T12:39:09.154Z,70.03
2024-04-12T12:40:09.098Z,68.63
2024-04-12T12:41:09.281Z,67.73
2024-04-12T12:42:09.168Z,66.33
2024-04-12T12:43:09.095Z,65.94
2024-04-12T12:44:09.032Z,66.03
2024-04-12T12:45:09.112Z,65.23
2024-04-12T12:46:08.976Z,68.36
2024-04-12T12:47:09.317Z,68.66
2024-04-12T12:48:09.385Z,68.76
2024-04-12T12:49:09.117Z,68.26
2024-04-12T12:50:09.321Z,67.76
2024-04-12T12:51:09.020Z,67.69
2024-04-12T12:52:09.069Z,68.29